createdAt,value
2022-09-06T00:04:52.774Z,100
2022-09-06T00:15:54.029Z,100
2022-09-06T00:21:35.076Z,100
2022-09-06T00:27:15.343Z,100
2022-09-06T00:32:55.813Z,100
2022-09-06T00:38:36.259Z,100
2022-09-06T00:44:16.571Z,100
2022-09-06T00:49:56.769Z,100
2022-09-06T00:55:45.822Z,100
2022-09-06T01:01:29.791Z,100
2022-09-06T01:07:11.619Z,100
2022-09-06T01:12:52.205Z,100
2022-09-06T01:18:32.759Z,100
2022-09-06T01:24:12.842Z,100
2022-09-06T01:29:53.055Z,100
2022-09-06T01:35:33.162Z,100
2022-09-06T01:41:13.242Z,100
2022-09-06T01:46:53.314Z,100
2022-09-06T01:52:33.720Z,100
2022-09-06T01:58:13.923Z,100
2022-09-06T02:03:54.263Z,100
2022-09-06T02:09:34.353Z,100
2022-09-06T02:15:14.412Z,100
2022-09-06T02:20:54.559Z,100
2022-09-06T02:26:34.746Z,100
2022-09-06T02:32:14.855Z,100
2022-09-06T02:37:55.141Z,100
2022-09-06T02:43:35.282Z,100
2022-09-06T02:49:15.435Z,100
2022-09-06T02:54:55.853Z,100
2022-09-06T03:00:36.024Z,100
2022-09-06T03:06:16.086Z,100
2022-09-06T03:11:56.159Z,100
2022-09-06T03:20:49.997Z,100
2022-09-06T03:26:38.395Z,100
2022-09-06T03:32:49.946Z,100
2022-09-06T03:46:22.927Z,100
2022-09-06T03:52:06.553Z,100
2022-09-06T03:57:48.324Z,100
2022-09-06T04:03:41.573Z,100
2022-09-06T04:09:40.508Z,100
2022-09-06T04:15:22.532Z,100
2022-09-06T04:21:04.323Z,100
2022-09-06T04:26:44.887Z,100
2022-09-06T04:32:25.607Z,100
2022-09-06T04:38:05.902Z,100
2022-09-06T04:43:46.462Z,100
2022-09-06T04:49:27.837Z,100
2022-09-06T04:55:08.184Z,100
2022-09-06T05:00:48.781Z,100
2022-09-06T05:06:30.293Z,100
2022-09-06T05:12:10.552Z,100
2022-09-06T05:17:50.810Z,100
2022-09-06T05:23:31.286Z,100
2022-09-06T05:29:13.987Z,100
2022-09-06T05:35:06.117Z,100
2022-09-06T05:46:43.825Z,100
2022-09-06T05:52:58.717Z,100
2022-09-06T06:03:17.149Z,100
2022-09-06T06:08:59.065Z,100
2022-09-06T06:14:39.238Z,100
2022-09-06T06:27:33.612Z,100
2022-09-06T08:02:59.209Z,100
2022-09-06T08:14:39.685Z,100
2022-09-06T08:20:22.090Z,100
2022-09-06T08:26:02.333Z,100
2022-09-06T08:31:42.569Z,100
2022-09-06T08:37:25.403Z,100
2022-09-06T08:43:11.753Z,100
2022-09-06T08:48:55.494Z,100
2022-09-06T08:54:39.108Z,100
2022-09-06T09:00:19.421Z,100
2022-09-06T09:06:00.474Z,100
2022-09-06T09:11:45.104Z,100
2022-09-06T09:17:25.671Z,100
2022-09-06T09:23:23.915Z,100
2022-09-06T09:29:09.715Z,100
2022-09-06T09:34:50.137Z,100
2022-09-06T09:40:32.817Z,100
2022-09-06T09:46:13.105Z,100
2022-09-06T09:51:58.593Z,100
2022-09-06T09:57:44.664Z,100
2022-09-06T10:10:26.419Z,100
2022-09-06T10:16:06.896Z,100
2022-09-06T10:21:48.463Z,96.3
2022-09-06T10:27:30.069Z,100
2022-09-06T10:33:18.042Z,100
2022-09-06T10:39:04.671Z,100
2022-09-06T10:44:46.260Z,98.7
2022-09-06T10:50:27.638Z,100
2022-09-06T10:56:14.040Z,100
2022-09-06T11:01:54.711Z,100
2022-09-06T11:07:36.300Z,100
2022-09-06T11:13:17.906Z,100
2022-09-06T11:19:00.848Z,100
2022-09-06T11:24:44.741Z,94.7
2022-09-06T11:30:24.971Z,71.7
2022-09-06T11:36:04.749Z,67.9
2022-09-06T11:41:45.869Z,65.6
2022-09-06T11:47:29.321Z,79.6
2022-09-06T11:53:12.085Z,79.6
2022-09-06T11:58:51.741Z,82
2022-09-06T12:04:32.761Z,69
2022-09-06T12:10:12.467Z,67.6
2022-09-06T12:15:52.843Z,63.1
2022-09-06T12:21:33.797Z,61.3
2022-09-06T12:27:14.298Z,51.4
2022-09-06T12:33:03.213Z,61.4
2022-09-06T12:38:45.713Z,55.9
2022-09-06T12:44:32.432Z,50.5
2022-09-06T12:50:14.912Z,57.1
2022-09-06T12:55:55.268Z,52.1
2022-09-06T14:31:54.024Z,53.8
2022-09-06T14:37:34.451Z,54.2
2022-09-06T14:43:16.785Z,60.5
2022-09-06T14:48:57.478Z,66.3
2022-09-06T14:54:37.582Z,70.4
2022-09-06T15:00:17.537Z,70.7
2022-09-06T15:05:57.613Z,72.5
2022-09-06T15:11:37.903Z,70.5
2022-09-06T15:17:18.575Z,72.2
2022-09-06T15:23:25.421Z,74.6
2022-09-06T15:29:06.592Z,76.9
2022-09-06T15:34:47.438Z,86.3
2022-09-06T15:40:27.762Z,83.8
2022-09-06T15:46:07.993Z,85.9
2022-09-06T15:51:48.311Z,94.1
2022-09-06T15:57:28.470Z,92.1
2022-09-06T16:03:08.700Z,87
2022-09-06T16:08:48.886Z,84.5
2022-09-06T16:14:29.038Z,88.5
2022-09-06T16:20:09.546Z,87.2
2022-09-06T16:25:49.833Z,87.9
2022-09-06T16:31:30.356Z,88.8
2022-09-06T16:37:10.928Z,89.9
2022-09-06T16:42:51.072Z,83
2022-09-06T16:48:31.573Z,88
2022-09-06T16:54:12.036Z,89.6
2022-09-06T16:59:52.518Z,86.6
2022-09-06T17:05:32.767Z,87.4
2022-09-06T17:11:13.007Z,95.2
2022-09-06T17:16:56.001Z,97.2
2022-09-06T17:22:36.977Z,96.8
2022-09-06T17:28:17.047Z,100
2022-09-06T17:33:57.202Z,100
2022-09-06T17:39:37.507Z,100
2022-09-06T17:45:18.006Z,100
2022-09-06T17:50:58.259Z,100
2022-09-06T17:56:38.431Z,100
2022-09-06T18:02:19.093Z,100
2022-09-06T18:07:59.235Z,100
2022-09-06T18:13:39.683Z,100
2022-09-06T18:19:19.663Z,100
2022-09-06T18:25:02.408Z,100
2022-09-06T18:30:45.355Z,100
2022-09-06T18:36:32.325Z,100
2022-09-06T18:42:13.524Z,100
2022-09-06T18:47:53.778Z,100
2022-09-06T18:53:35.935Z,100
2022-09-06T18:59:16.115Z,100
2022-09-06T19:04:58.988Z,100
2022-09-06T19:10:39.613Z,100
2022-09-06T19:16:19.887Z,100
2022-09-06T19:22:00.882Z,100
2022-09-06T19:27:48.744Z,100
2022-09-06T19:33:36.229Z,100
2022-09-06T19:39:16.914Z,100
2022-09-06T19:44:57.479Z,100
2022-09-06T19:50:37.828Z,100
2022-09-06T19:56:18.030Z,100
2022-09-06T20:01:58.451Z,100
2022-09-06T20:07:39.602Z,100
2022-09-06T20:13:19.850Z,100
2022-09-06T20:19:00.440Z,100
2022-09-06T20:24:40.880Z,100
2022-09-06T20:30:21.028Z,100
2022-09-06T20:49:53.582Z,100
2022-09-06T20:55:34.517Z,100
2022-09-06T21:01:15.408Z,100
2022-09-06T21:06:58.635Z,100
2022-09-06T21:12:38.846Z,100
2022-09-06T21:18:19.056Z,100
2022-09-06T21:23:59.452Z,100
2022-09-06T21:29:39.959Z,100
2022-09-06T21:35:19.957Z,100
2022-09-06T21:41:00.469Z,100
2022-09-06T21:46:40.802Z,100
2022-09-06T21:52:21.572Z,100
2022-09-06T21:58:01.274Z,100
2022-09-06T22:03:40.896Z,100
2022-09-06T22:09:21.004Z,100
2022-09-06T22:15:01.316Z,100
2022-09-06T22:20:44.399Z,100
2022-09-06T22:26:24.956Z,100
2022-09-06T22:32:05.045Z,100
2022-09-06T22:37:45.124Z,100
2022-09-06T22:43:27.416Z,100
2022-09-06T22:49:07.404Z,100
2022-09-06T22:54:47.506Z,100
2022-09-06T23:00:28.050Z,100
2022-09-06T23:06:08.787Z,100
2022-09-06T23:11:48.955Z,100
2022-09-06T23:17:29.170Z,100
2022-09-06T23:23:09.458Z,100
2022-09-06T23:28:49.629Z,100
2022-09-06T23:34:29.749Z,100
2022-09-06T23:40:09.959Z,100
2022-09-06T23:45:50.422Z,100
2022-09-06T23:51:30.835Z,100
2022-09-06T23:57:10.886Z,100
